BIHN

Hornafjordur Airport

Hornafjordur, Iceland
METAR BIHN 151700Z 18008KT 9999 VCSH FEW008 BKN022 BKN036 12/10 Q1000
Observed Flight Rules
Jul-15 @ 17:00 UTC (4 hours ago) Marginal Visual Flight Rules
Wind Visibility Clouds
180° at 8 knots 10,000+ meters
  • Few at 800' AGL
  • Broken at 2,200' AGL
  • Broken at 3,600' AGL
Temperatures Readings
Current 12°C / 54°F
Dewpoint 10°C / 50°F
Humidity 88%
Altimeter 29.53" Hg
Pressure 1000 hPa
Elevation 7
METAR BIHN 151700Z 18008KT 9999 VCSH FEW008 BKN022 BKN036 12/10 Q1000
Observed Flight Rules
Jul-15 @ 17:00 UTC
(4 hours ago)
MVFR
Wind Visibility
180° at 8 knots 10,000+ meters
Clouds
  • Few at 800' AGL
  • Broken at 2,200' AGL
  • Broken at 3,600' AGL
Temperature Dewpoint
12°C / 54°F 10°C / 50°F
Humidity Altimeter Pressure
88% 29.53" Hg 1000 hPa